Time;durP1;ratioP1;P1;durP2;ratioP2;P2;SDS_P1;SDS_P2;PMS_P1;PMS_P2;Temp;Humidity;BMP_temperature;BMP_pressure;BME280_temperature;BME280_humidity;BME280_pressure;Samples;Min_cycle;Max_cycle;Signal;HPM_P1;HPM_P2
2023/12/18 00:02:26;;;;;;;37.97;22.53;;;;;;;;;;5036934;28;20469;-61
2023/12/18 00:04:54;;;;;;;35.93;23.97;;;;;;;;;;5037092;28;20980;-61
2023/12/18 00:07:22;;;;;;;35.47;21.73;;;;;;;;;;5037040;28;20514;-60
2023/12/18 00:09:50;;;;;;;38.57;23.93;;;;;;;;;;5037672;28;20446;-60
2023/12/18 00:12:19;;;;;;;39.60;24.00;;;;;;;;;;5037157;28;20517;-60
2023/12/18 00:14:48;;;;;;;40.93;23.60;;;;;;;;;;5037253;28;21019;-60
2023/12/18 00:17:16;;;;;;;39.67;23.23;;;;;;;;;;5036166;28;20449;-61
2023/12/18 00:19:44;;;;;;;35.10;21.97;;;;;;;;;;5037408;28;20442;-61
2023/12/18 00:22:13;;;;;;;35.33;23.10;;;;;;;;;;5037280;28;20474;-61
2023/12/18 00:24:41;;;;;;;34.97;23.53;;;;;;;;;;5037502;28;20458;-61
2023/12/18 00:27:09;;;;;;;36.53;23.00;;;;;;;;;;5037293;28;20474;-60
2023/12/18 00:29:39;;;;;;;38.33;23.70;;;;;;;;;;5037440;28;20470;-61
2023/12/18 00:32:09;;;;;;;41.73;24.40;;;;;;;;;;5036504;28;20449;-61
2023/12/18 00:34:37;;;;;;;38.23;23.53;;;;;;;;;;5036778;28;20477;-61
2023/12/18 00:37:05;;;;;;;38.40;23.57;;;;;;;;;;5037098;28;20473;-61
2023/12/18 00:39:33;;;;;;;36.83;23.00;;;;;;;;;;5037269;28;20462;-61
2023/12/18 00:42:02;;;;;;;36.40;22.07;;;;;;;;;;5036999;28;20991;-61
2023/12/18 00:44:30;;;;;;;39.23;22.73;;;;;;;;;;5037270;28;20561;-61
2023/12/18 00:46:58;;;;;;;38.40;22.20;;;;;;;;;;5036943;28;20485;-61
2023/12/18 00:49:28;;;;;;;35.90;22.83;;;;;;;;;;5037178;28;20447;-61
2023/12/18 00:51:56;;;;;;;38.03;23.00;;;;;;;;;;5036709;28;20450;-61
2023/12/18 00:54:24;;;;;;;38.17;22.00;;;;;;;;;;5036942;28;20462;-61
2023/12/18 00:56:52;;;;;;;35.20;21.63;;;;;;;;;;5037048;28;20442;-61
2023/12/18 00:59:21;;;;;;;36.27;22.03;;;;;;;;;;5036985;28;20442;-61
2023/12/18 01:01:49;;;;;;;36.13;22.57;;;;;;;;;;5036490;28;20454;-61
2023/12/18 01:04:17;;;;;;;39.50;21.73;;;;;;;;;;5037024;28;20465;-61
2023/12/18 01:06:46;;;;;;;37.87;21.10;;;;;;;;;;5036396;28;20920;-61
2023/12/18 01:09:15;;;;;;;35.70;21.83;;;;;;;;;;5037036;28;20449;-61
2023/12/18 01:11:43;;;;;;;31.87;21.07;;;;;;;;;;5036746;28;20991;-61
2023/12/18 01:14:11;;;;;;;33.53;22.00;;;;;;;;;;5036680;28;20470;-61
2023/12/18 01:16:39;;;;;;;31.87;20.33;;;;;;;;;;5036712;28;20799;-61
2023/12/18 01:19:07;;;;;;;30.53;20.10;;;;;;;;;;5036776;28;20451;-61
2023/12/18 01:21:36;;;;;;;31.00;19.20;;;;;;;;;;5036793;28;20530;-61
2023/12/18 01:24:06;;;;;;;33.87;20.10;;;;;;;;;;5036346;28;20470;-61
2023/12/18 01:26:37;;;;;;;28.27;18.03;;;;;;;;;;5036683;28;20530;-61
2023/12/18 01:29:05;;;;;;;30.00;18.63;;;;;;;;;;5039222;28;20517;-61
2023/12/18 01:31:33;;;;;;;30.97;17.97;;;;;;;;;;5038827;28;20806;-61
2023/12/18 01:34:01;;;;;;;29.63;16.50;;;;;;;;;;5040162;28;20465;-61
2023/12/18 01:36:29;;;;;;;26.03;17.90;;;;;;;;;;5039978;28;20438;-61
2023/12/18 01:38:58;;;;;;;27.13;16.97;;;;;;;;;;5040150;28;20445;-61
2023/12/18 01:41:27;;;;;;;26.87;17.07;;;;;;;;;;5040201;28;20442;-61
2023/12/18 01:43:55;;;;;;;27.37;15.97;;;;;;;;;;5040224;28;20484;-60
2023/12/18 01:46:24;;;;;;;30.00;17.30;;;;;;;;;;5039615;28;20438;-61
2023/12/18 01:48:52;;;;;;;26.93;16.63;;;;;;;;;;5040309;28;20478;-60
2023/12/18 01:51:22;;;;;;;27.73;16.93;;;;;;;;;;5039696;28;20930;-61
2023/12/18 01:53:52;;;;;;;25.70;17.33;;;;;;;;;;5039983;28;20524;-61
2023/12/18 01:56:22;;;;;;;25.37;16.60;;;;;;;;;;5039653;28;20434;-61
2023/12/18 01:58:53;;;;;;;27.53;16.97;;;;;;;;;;5039948;28;20450;-61
2023/12/18 02:01:21;;;;;;;25.90;15.23;;;;;;;;;;5039249;28;20442;-60
2023/12/18 02:03:50;;;;;;;27.90;17.07;;;;;;;;;;5039352;28;20494;-61
2023/12/18 02:06:19;;;;;;;29.30;16.87;;;;;;;;;;5039000;28;20977;-60
2023/12/18 02:08:47;;;;;;;22.23;14.87;;;;;;;;;;5039584;28;20564;-61
2023/12/18 02:11:15;;;;;;;28.00;17.23;;;;;;;;;;5028008;28;20816;-60
2023/12/18 02:13:44;;;;;;;30.60;17.23;;;;;;;;;;5039540;28;20542;-60
2023/12/18 02:16:14;;;;;;;27.10;16.23;;;;;;;;;;5039722;28;20936;-60
2023/12/18 02:18:43;;;;;;;26.27;16.60;;;;;;;;;;5039048;28;20434;-61
2023/12/18 02:21:12;;;;;;;23.77;15.77;;;;;;;;;;5039464;28;20446;-61
2023/12/18 02:23:41;;;;;;;25.20;16.57;;;;;;;;;;5039171;28;20484;-60
2023/12/18 02:26:09;;;;;;;24.03;15.93;;;;;;;;;;5039343;28;20439;-61
2023/12/18 02:28:38;;;;;;;24.67;16.77;;;;;;;;;;5039244;28;20485;-61
2023/12/18 02:31:06;;;;;;;25.27;16.43;;;;;;;;;;5039367;28;20438;-60
2023/12/18 02:33:34;;;;;;;22.70;15.67;;;;;;;;;;5038556;28;20468;-61
2023/12/18 02:36:02;;;;;;;25.33;17.27;;;;;;;;;;5039224;28;20457;-60
2023/12/18 02:38:30;;;;;;;23.37;15.33;;;;;;;;;;5038855;28;20419;-60
2023/12/18 02:41:00;;;;;;;26.33;16.60;;;;;;;;;;5038191;28;20449;-60
2023/12/18 02:43:28;;;;;;;23.17;15.73;;;;;;;;;;5038989;28;20473;-60
2023/12/18 02:45:56;;;;;;;23.90;16.43;;;;;;;;;;5038676;28;20957;-61
2023/12/18 02:48:24;;;;;;;26.90;15.10;;;;;;;;;;5038865;28;20489;-61
2023/12/18 02:50:52;;;;;;;23.73;13.83;;;;;;;;;;5038430;28;20446;-61
2023/12/18 02:53:20;;;;;;;27.73;14.33;;;;;;;;;;5038846;28;20961;-60
2023/12/18 02:55:49;;;;;;;24.83;15.13;;;;;;;;;;5038460;28;20442;-60
2023/12/18 02:58:21;;;;;;;23.60;14.93;;;;;;;;;;5038834;28;20441;-61
2023/12/18 03:00:49;;;;;;;19.17;13.03;;;;;;;;;;5038415;28;20477;-60
2023/12/18 03:03:17;;;;;;;24.77;14.90;;;;;;;;;;5038584;28;20474;-60
2023/12/18 03:05:45;;;;;;;23.57;15.63;;;;;;;;;;5038264;28;20489;-61
2023/12/18 03:08:14;;;;;;;22.33;15.20;;;;;;;;;;5038550;28;21095;-60
2023/12/18 03:10:42;;;;;;;25.60;16.40;;;;;;;;;;5038236;28;20445;-61
2023/12/18 03:13:10;;;;;;;24.47;15.87;;;;;;;;;;5038440;28;20466;-60
2023/12/18 03:15:39;;;;;;;21.43;14.43;;;;;;;;;;5038165;28;20438;-60
2023/12/18 03:18:07;;;;;;;27.47;15.60;;;;;;;;;;5038244;28;20843;-60
2023/12/18 03:20:36;;;;;;;25.17;14.97;;;;;;;;;;5037800;28;20806;-61
2023/12/18 03:23:04;;;;;;;20.43;13.83;;;;;;;;;;5038434;28;20474;-61
2023/12/18 03:25:32;;;;;;;22.47;14.63;;;;;;;;;;5038235;28;20434;-61
2023/12/18 03:28:00;;;;;;;26.13;15.13;;;;;;;;;;5038429;28;20447;-60
2023/12/18 03:30:29;;;;;;;24.37;14.33;;;;;;;;;;5037341;28;21101;-61
2023/12/18 03:32:59;;;;;;;30.13;15.40;;;;;;;;;;5037779;28;20956;-61
2023/12/18 03:35:27;;;;;;;24.33;15.10;;;;;;;;;;5037772;28;20473;-61
2023/12/18 03:37:55;;;;;;;27.73;16.23;;;;;;;;;;5038078;28;20449;-61
2023/12/18 03:40:24;;;;;;;27.90;16.47;;;;;;;;;;5038183;28;20910;-60
2023/12/18 03:42:52;;;;;;;23.83;15.60;;;;;;;;;;5037656;28;20438;-60
2023/12/18 03:45:20;;;;;;;25.60;15.13;;;;;;;;;;5038003;28;20457;-60
2023/12/18 03:47:48;;;;;;;24.33;15.90;;;;;;;;;;5037756;28;20496;-60
2023/12/18 03:50:18;;;;;;;24.97;15.03;;;;;;;;;;5037811;28;20916;-61
2023/12/18 03:52:46;;;;;;;22.13;13.27;;;;;;;;;;5037492;28;20445;-60
2023/12/18 03:55:14;;;;;;;21.77;13.73;;;;;;;;;;5037790;28;20451;-61
2023/12/18 03:57:42;;;;;;;27.83;14.10;;;;;;;;;;5037656;28;20451;-61
2023/12/18 04:00:11;;;;;;;25.00;13.43;;;;;;;;;;5037563;28;20529;-61
2023/12/18 04:02:40;;;;;;;28.23;14.07;;;;;;;;;;5037363;28;20521;-61
2023/12/18 04:05:08;;;;;;;24.07;15.77;;;;;;;;;;5037206;28;20449;-61
2023/12/18 04:07:37;;;;;;;23.20;14.07;;;;;;;;;;5037488;28;20453;-61
2023/12/18 04:10:07;;;;;;;25.10;15.07;;;;;;;;;;5037471;28;20588;-61
2023/12/18 04:12:35;;;;;;;29.03;16.37;;;;;;;;;;5037010;28;20470;-61
2023/12/18 04:15:04;;;;;;;22.50;15.23;;;;;;;;;;5037251;28;20813;-61
2023/12/18 04:17:32;;;;;;;26.73;15.97;;;;;;;;;;5037067;28;20805;-61
2023/12/18 04:20:01;;;;;;;27.10;16.10;;;;;;;;;;5037127;28;20825;-61
2023/12/18 04:22:29;;;;;;;31.27;15.90;;;;;;;;;;5037266;28;20475;-61
2023/12/18 04:24:59;;;;;;;25.20;14.83;;;;;;;;;;5036831;28;20463;-61
2023/12/18 04:27:27;;;;;;;26.30;15.37;;;;;;;;;;5037161;28;20450;-61
2023/12/18 04:29:56;;;;;;;25.67;15.73;;;;;;;;;;5029936;28;20569;-60
2023/12/18 04:32:24;;;;;;;23.43;14.93;;;;;;;;;;5033729;28;20496;-60
2023/12/18 04:34:53;;;;;;;27.27;15.60;;;;;;;;;;5036666;28;21053;-61
2023/12/18 04:37:21;;;;;;;24.53;14.80;;;;;;;;;;5035829;28;20450;-61
2023/12/18 04:39:49;;;;;;;33.47;15.87;;;;;;;;;;5036763;28;20546;-61
2023/12/18 04:42:20;;;;;;;29.47;15.23;;;;;;;;;;5033120;28;20508;-60
2023/12/18 04:44:49;;;;;;;29.00;15.37;;;;;;;;;;5036774;28;20843;-60
2023/12/18 04:47:17;;;;;;;32.17;16.33;;;;;;;;;;5036867;28;20529;-61
2023/12/18 04:49:46;;;;;;;30.17;15.60;;;;;;;;;;5034147;28;20490;-61
2023/12/18 04:52:15;;;;;;;28.17;16.37;;;;;;;;;;5037637;28;20517;-60
2023/12/18 04:54:43;;;;;;;30.63;15.73;;;;;;;;;;5036694;28;20463;-60
2023/12/18 04:57:12;;;;;;;34.93;15.57;;;;;;;;;;5036795;28;20473;-60
2023/12/18 04:59:42;;;;;;;32.50;17.70;;;;;;;;;;5037245;28;20438;-60
2023/12/18 05:02:10;;;;;;;33.97;16.70;;;;;;;;;;5036878;28;20784;-60
2023/12/18 05:04:38;;;;;;;35.27;18.43;;;;;;;;;;5030900;28;20470;-61
2023/12/18 05:07:07;;;;;;;33.47;19.60;;;;;;;;;;5040229;28;20481;-61
2023/12/18 05:09:36;;;;;;;33.53;19.67;;;;;;;;;;5040862;28;20538;-60
2023/12/18 05:12:05;;;;;;;32.93;18.37;;;;;;;;;;5040666;28;20466;-60
2023/12/18 05:14:33;;;;;;;26.63;15.83;;;;;;;;;;5040653;28;20469;-61
2023/12/18 05:17:03;;;;;;;34.53;16.63;;;;;;;;;;5038168;28;20454;-61
2023/12/18 05:19:31;;;;;;;26.87;14.20;;;;;;;;;;5033163;28;20434;-60
2023/12/18 05:22:00;;;;;;;22.43;13.97;;;;;;;;;;5039845;28;20447;-61
2023/12/18 05:24:28;;;;;;;28.23;14.90;;;;;;;;;;5040490;28;20554;-61
2023/12/18 05:26:56;;;;;;;25.90;15.50;;;;;;;;;;5037979;28;20442;-61
2023/12/18 05:29:24;;;;;;;31.47;17.33;;;;;;;;;;5039996;28;20485;-61
2023/12/18 05:31:52;;;;;;;34.17;17.03;;;;;;;;;;5039562;28;20446;-61
2023/12/18 05:34:22;;;;;;;26.10;15.67;;;;;;;;;;5039781;28;20897;-61
2023/12/18 05:36:51;;;;;;;26.27;15.07;;;;;;;;;;5039749;28;20806;-61
2023/12/18 05:39:19;;;;;;;25.77;14.90;;;;;;;;;;5040312;28;20447;-60
2023/12/18 05:41:47;;;;;;;24.57;15.13;;;;;;;;;;5039948;28;20848;-60
2023/12/18 05:44:15;;;;;;;31.20;15.17;;;;;;;;;;5040271;28;20463;-60
2023/12/18 05:46:43;;;;;;;21.20;14.67;;;;;;;;;;5039864;28;20439;-60
2023/12/18 05:49:11;;;;;;;30.67;13.77;;;;;;;;;;5039835;28;20937;-60
2023/12/18 05:51:41;;;;;;;23.97;14.67;;;;;;;;;;5040011;28;20476;-61
2023/12/18 05:54:09;;;;;;;25.57;14.60;;;;;;;;;;5039520;28;20509;-61
2023/12/18 05:56:37;;;;;;;26.67;14.50;;;;;;;;;;5040098;28;20452;-60
2023/12/18 05:59:06;;;;;;;25.47;14.77;;;;;;;;;;5039870;28;20446;-60
2023/12/18 06:01:34;;;;;;;24.10;15.47;;;;;;;;;;5039801;28;20486;-61
2023/12/18 06:04:02;;;;;;;32.70;14.93;;;;;;;;;;5039182;28;20497;-60
2023/12/18 06:06:30;;;;;;;28.07;15.57;;;;;;;;;;5039343;28;20893;-60
2023/12/18 06:09:00;;;;;;;21.10;15.03;;;;;;;;;;5039565;28;20435;-60
2023/12/18 06:11:29;;;;;;;26.20;15.30;;;;;;;;;;5039808;28;20504;-60
2023/12/18 06:13:57;;;;;;;28.80;16.53;;;;;;;;;;5038639;28;20880;-59
2023/12/18 06:16:25;;;;;;;27.07;15.43;;;;;;;;;;5039121;28;20453;-60
2023/12/18 06:18:53;;;;;;;34.87;14.40;;;;;;;;;;5039165;28;20446;-60
2023/12/18 06:21:21;;;;;;;26.37;14.90;;;;;;;;;;5039499;28;20438;-60
2023/12/18 06:23:49;;;;;;;27.40;16.40;;;;;;;;;;5038914;28;20466;-60
2023/12/18 06:26:19;;;;;;;26.90;14.27;;;;;;;;;;5039689;28;20446;-60
2023/12/18 06:28:47;;;;;;;24.47;15.10;;;;;;;;;;5039048;28;20442;-60
2023/12/18 06:31:15;;;;;;;26.77;15.60;;;;;;;;;;5038949;28;20509;-60
2023/12/18 06:33:44;;;;;;;25.17;15.57;;;;;;;;;;5037627;28;20536;-60
2023/12/18 06:36:15;;;;;;;25.47;13.13;;;;;;;;;;5038983;28;20538;-60
2023/12/18 06:38:47;;;;;;;27.63;14.07;;;;;;;;;;5039174;28;20466;-60
2023/12/18 06:41:16;;;;;;;24.27;13.50;;;;;;;;;;5037162;28;20945;-60
2023/12/18 06:43:46;;;;;;;26.00;15.40;;;;;;;;;;5037844;28;20468;-60
2023/12/18 06:46:14;;;;;;;31.17;16.80;;;;;;;;;;5038400;28;20438;-59
2023/12/18 06:48:42;;;;;;;26.13;14.67;;;;;;;;;;5038964;28;20445;-60
2023/12/18 06:51:11;;;;;;;27.50;15.43;;;;;;;;;;5038681;28;20520;-60
2023/12/18 06:53:43;;;;;;;22.60;13.47;;;;;;;;;;5029739;28;20493;-60
2023/12/18 06:56:13;;;;;;;34.80;15.70;;;;;;;;;;5038642;28;20469;-60
2023/12/18 06:58:41;;;;;;;29.97;16.87;;;;;;;;;;5038639;28;20982;-60
2023/12/18 07:01:11;;;;;;;26.87;14.83;;;;;;;;;;5038298;28;20991;-60
2023/12/18 07:03:40;;;;;;;23.67;15.63;;;;;;;;;;5038339;28;20467;-60
2023/12/18 07:06:08;;;;;;;30.47;15.67;;;;;;;;;;5038193;28;20533;-60
2023/12/18 07:08:37;;;;;;;30.23;15.47;;;;;;;;;;5038498;28;20525;-60
2023/12/18 07:11:08;;;;;;;32.90;18.00;;;;;;;;;;5038469;28;21111;-60
2023/12/18 07:13:37;;;;;;;28.77;17.20;;;;;;;;;;5038060;28;20489;-59
2023/12/18 07:16:06;;;;;;;28.93;16.67;;;;;;;;;;5027392;28;20445;-59
2023/12/18 07:18:35;;;;;;;29.90;17.47;;;;;;;;;;5038063;28;20911;-59
2023/12/18 07:21:05;;;;;;;38.10;19.83;;;;;;;;;;5037934;28;20438;-59
2023/12/18 07:23:33;;;;;;;33.83;17.80;;;;;;;;;;5037781;28;20492;-59
2023/12/18 07:26:01;;;;;;;40.37;19.53;;;;;;;;;;5037677;28;20505;-60
2023/12/18 07:28:29;;;;;;;37.00;20.13;;;;;;;;;;5038040;28;20438;-60
2023/12/18 07:30:58;;;;;;;37.27;21.13;;;;;;;;;;5037396;28;20486;-59
2023/12/18 07:33:26;;;;;;;39.97;20.57;;;;;;;;;;5037805;28;20459;-59
2023/12/18 07:35:55;;;;;;;43.53;20.53;;;;;;;;;;5038110;28;20465;-59
2023/12/18 07:38:23;;;;;;;42.77;21.30;;;;;;;;;;5038000;28;20441;-59
2023/12/18 07:40:52;;;;;;;50.17;25.00;;;;;;;;;;5038042;28;20445;-59
2023/12/18 07:43:20;;;;;;;50.87;24.37;;;;;;;;;;5037947;28;20466;-60
2023/12/18 07:45:49;;;;;;;44.00;22.60;;;;;;;;;;5037463;28;20450;-60
2023/12/18 07:48:21;;;;;;;48.93;21.33;;;;;;;;;;5038058;28;20470;-61
2023/12/18 07:50:51;;;;;;;42.80;20.43;;;;;;;;;;5035165;28;20485;-60
2023/12/18 07:53:20;;;;;;;37.83;20.13;;;;;;;;;;5036760;28;20829;-62
2023/12/18 07:55:49;;;;;;;43.27;20.23;;;;;;;;;;5037427;28;20810;-62
2023/12/18 07:58:20;;;;;;;39.67;19.23;;;;;;;;;;5045892;28;20473;-61
2023/12/18 08:00:48;;;;;;;42.47;20.70;;;;;;;;;;5037177;28;20450;-61
2023/12/18 08:03:16;;;;;;;41.50;20.47;;;;;;;;;;5037264;28;20545;-61
2023/12/18 08:05:44;;;;;;;41.37;21.63;;;;;;;;;;5037269;28;20477;-62
2023/12/18 08:08:13;;;;;;;43.23;21.23;;;;;;;;;;5036946;28;20434;-62
2023/12/18 08:10:43;;;;;;;51.43;20.47;;;;;;;;;;5037595;28;20505;-62
2023/12/18 08:13:11;;;;;;;53.57;21.70;;;;;;;;;;5037046;28;20536;-62
2023/12/18 08:15:39;;;;;;;49.87;22.10;;;;;;;;;;5037121;28;20447;-62
2023/12/18 08:18:12;;;;;;;49.27;22.57;;;;;;;;;;5027906;28;20446;-62
2023/12/18 08:20:41;;;;;;;46.47;22.47;;;;;;;;;;5034774;28;20848;-61
2023/12/18 08:23:09;;;;;;;55.03;21.93;;;;;;;;;;5034733;28;20488;-60
2023/12/18 08:25:37;;;;;;;49.47;23.77;;;;;;;;;;5033386;28;21001;-61
2023/12/18 08:28:07;;;;;;;48.73;22.80;;;;;;;;;;5033793;28;20815;-62
2023/12/18 08:30:35;;;;;;;48.27;22.77;;;;;;;;;;5035505;28;20528;-62
2023/12/18 08:33:03;;;;;;;58.73;24.07;;;;;;;;;;5035555;28;20823;-61
2023/12/18 08:35:33;;;;;;;56.40;22.47;;;;;;;;;;5032670;28;20486;-61
2023/12/18 08:38:02;;;;;;;53.60;23.03;;;;;;;;;;5035429;28;20430;-61
2023/12/18 08:40:31;;;;;;;52.37;22.37;;;;;;;;;;5041047;28;20457;-61
2023/12/18 08:46:25;;;;;;;43.20;23.00;;;;;;;;;;5038509;28;20471;-61
2023/12/18 08:48:54;;;;;;;53.73;22.60;;;;;;;;;;5039622;28;20929;-61
2023/12/18 08:51:22;;;;;;;41.83;21.97;;;;;;;;;;5039676;28;20481;-60
2023/12/18 08:53:50;;;;;;;49.33;22.17;;;;;;;;;;5039911;28;20462;-60
2023/12/18 08:56:18;;;;;;;42.67;22.93;;;;;;;;;;5039378;28;20824;-60
2023/12/18 08:58:46;;;;;;;58.23;23.83;;;;;;;;;;5036687;28;20472;-60
2023/12/18 09:01:14;;;;;;;59.93;23.80;;;;;;;;;;5040065;28;20450;-60
2023/12/18 09:04:06;;;;;;;62.23;26.23;;;;;;;;;;5040551;28;20492;-60
2023/12/18 09:07:10;;;;;;;47.60;23.33;;;;;;;;;;5026799;28;20481;-60
2023/12/18 09:09:40;;;;;;;50.33;23.87;;;;;;;;;;5040020;28;20442;-60
2023/12/18 09:12:08;;;;;;;55.03;24.13;;;;;;;;;;5040555;28;20549;-59
2023/12/18 09:14:37;;;;;;;53.30;25.07;;;;;;;;;;5040377;28;20450;-60
2023/12/18 09:17:05;;;;;;;60.43;25.07;;;;;;;;;;5039910;28;20452;-60
2023/12/18 09:19:34;;;;;;;51.50;23.30;;;;;;;;;;5040612;28;20438;-60
2023/12/18 09:22:02;;;;;;;58.93;22.70;;;;;;;;;;5040194;28;20484;-60
2023/12/18 09:24:34;;;;;;;53.63;24.53;;;;;;;;;;5032487;28;20465;-60
2023/12/18 09:27:03;;;;;;;50.77;22.80;;;;;;;;;;5039020;28;20450;-60
2023/12/18 09:29:31;;;;;;;49.43;23.03;;;;;;;;;;5039820;28;20994;-60
2023/12/18 09:31:59;;;;;;;59.53;25.23;;;;;;;;;;5037452;28;21067;-60
2023/12/18 09:34:28;;;;;;;49.67;24.60;;;;;;;;;;5040073;28;20478;-60
2023/12/18 09:36:57;;;;;;;43.07;22.63;;;;;;;;;;5035098;28;20930;-61
2023/12/18 09:39:25;;;;;;;47.10;22.57;;;;;;;;;;5040151;28;20442;-60
2023/12/18 09:42:00;;;;;;;42.23;21.17;;;;;;;;;;5039432;28;20449;-60
2023/12/18 09:44:30;;;;;;;40.83;20.37;;;;;;;;;;5039394;28;20553;-60
2023/12/18 09:46:59;;;;;;;40.90;22.07;;;;;;;;;;5040367;28;20968;-60
2023/12/18 09:49:27;;;;;;;35.10;21.53;;;;;;;;;;5044178;28;20452;-59
2023/12/18 09:51:58;;;;;;;39.37;21.00;;;;;;;;;;5039820;28;20482;-60
2023/12/18 09:54:29;;;;;;;40.33;20.67;;;;;;;;;;5039570;28;20466;-62
2023/12/18 09:57:00;;;;;;;39.50;19.93;;;;;;;;;;5039295;28;20454;-62
2023/12/18 09:59:29;;;;;;;41.33;20.37;;;;;;;;;;5039829;28;20443;-61
2023/12/18 10:01:57;;;;;;;45.60;21.10;;;;;;;;;;5039131;28;20940;-61
2023/12/18 10:04:50;;;;;;;34.63;17.57;;;;;;;;;;5038675;28;20463;-62
2023/12/18 10:07:42;;;;;;;36.17;17.03;;;;;;;;;;5036578;28;20449;-62
2023/12/18 10:10:12;;;;;;;35.07;19.47;;;;;;;;;;5037674;28;20470;-61
2023/12/18 10:12:46;;;;;;;36.60;19.53;;;;;;;;;;5039202;28;20474;-61
2023/12/18 10:15:15;;;;;;;37.57;19.63;;;;;;;;;;5038180;28;20517;-61
2023/12/18 10:17:46;;;;;;;35.37;19.03;;;;;;;;;;5039291;28;20525;-61
2023/12/18 10:20:15;;;;;;;33.73;17.93;;;;;;;;;;5038195;28;20529;-62
2023/12/18 10:22:48;;;;;;;37.00;19.40;;;;;;;;;;5038524;28;20443;-62
2023/12/18 10:25:17;;;;;;;42.07;20.57;;;;;;;;;;5039204;28;21002;-61
2023/12/18 10:27:48;;;;;;;31.83;17.80;;;;;;;;;;5038736;28;20446;-61
2023/12/18 10:30:18;;;;;;;36.27;17.33;;;;;;;;;;5034628;28;20481;-61
2023/12/18 10:32:54;;;;;;;38.47;18.57;;;;;;;;;;5031201;28;20486;-62
2023/12/18 10:35:50;;;;;;;30.07;17.23;;;;;;;;;;5028083;28;20439;-61
2023/12/18 10:38:23;;;;;;;32.37;18.70;;;;;;;;;;5035080;28;20453;-61
2023/12/18 10:40:55;;;;;;;34.37;18.03;;;;;;;;;;5038116;28;20807;-61
2023/12/18 10:43:26;;;;;;;30.33;18.20;;;;;;;;;;5037151;28;20440;-61
2023/12/18 10:45:54;;;;;;;36.07;19.83;;;;;;;;;;5038152;28;20937;-62
2023/12/18 10:48:26;;;;;;;33.40;19.93;;;;;;;;;;5037775;28;20493;-61
2023/12/18 10:50:56;;;;;;;34.73;19.50;;;;;;;;;;5038507;28;20469;-61
2023/12/18 10:53:25;;;;;;;34.77;18.77;;;;;;;;;;5038420;28;20514;-62
2023/12/18 10:55:53;;;;;;;38.10;18.93;;;;;;;;;;5034017;28;20465;-61
2023/12/18 10:58:21;;;;;;;29.00;19.17;;;;;;;;;;5038677;28;20450;-61
2023/12/18 11:00:54;;;;;;;35.33;18.07;;;;;;;;;;5037129;28;20477;-61
2023/12/18 11:03:26;;;;;;;29.97;18.27;;;;;;;;;;5038465;28;20485;-61
2023/12/18 11:05:55;;;;;;;34.30;17.93;;;;;;;;;;5033561;28;20474;-61
2023/12/18 11:08:24;;;;;;;38.17;19.73;;;;;;;;;;5038310;28;20553;-61
2023/12/18 11:10:53;;;;;;;38.17;18.30;;;;;;;;;;5035086;28;20435;-61
2023/12/18 11:13:25;;;;;;;38.47;18.23;;;;;;;;;;5037437;28;20486;-62
2023/12/18 11:16:00;;;;;;;32.17;18.97;;;;;;;;;;5032166;28;20446;-62
2023/12/18 11:18:34;;;;;;;27.73;18.03;;;;;;;;;;5037933;28;20457;-61
2023/12/18 11:21:03;;;;;;;36.40;19.20;;;;;;;;;;5029564;28;20489;-61
2023/12/18 11:23:37;;;;;;;32.43;19.03;;;;;;;;;;5037939;28;21011;-61
2023/12/18 11:26:06;;;;;;;34.73;18.73;;;;;;;;;;5038224;28;20530;-60
2023/12/18 11:28:35;;;;;;;34.10;18.83;;;;;;;;;;5033813;28;20521;-61
2023/12/18 11:31:07;;;;;;;33.70;19.57;;;;;;;;;;5037693;28;20445;-60
2023/12/18 11:33:37;;;;;;;33.33;19.20;;;;;;;;;;5033828;28;20492;-61
2023/12/18 11:36:17;;;;;;;33.23;19.27;;;;;;;;;;5037537;28;20452;-60
2023/12/18 11:38:45;;;;;;;35.83;18.67;;;;;;;;;;5037583;28;20938;-61
2023/12/18 11:41:31;;;;;;;34.30;19.77;;;;;;;;;;5037390;28;20465;-63
2023/12/18 11:44:07;;;;;;;31.53;18.33;;;;;;;;;;5037708;28;20455;-63
2023/12/18 11:46:38;;;;;;;31.17;19.13;;;;;;;;;;5037357;28;20474;-60
2023/12/18 11:49:06;;;;;;;27.33;16.37;;;;;;;;;;5037390;28;20465;-60
2023/12/18 11:51:34;;;;;;;33.20;18.53;;;;;;;;;;5036520;28;20454;-60
2023/12/18 11:54:03;;;;;;;27.53;18.23;;;;;;;;;;5037204;28;20540;-61
2023/12/18 11:56:38;;;;;;;31.60;18.50;;;;;;;;;;5034569;28;20457;-60
2023/12/18 11:59:07;;;;;;;36.30;19.97;;;;;;;;;;5037491;28;20446;-61
2023/12/18 12:01:37;;;;;;;32.90;20.23;;;;;;;;;;5037285;28;20950;-60
2023/12/18 12:04:05;;;;;;;37.23;21.00;;;;;;;;;;5037537;28;20467;-62
2023/12/18 12:06:34;;;;;;;32.83;20.03;;;;;;;;;;5036790;28;20504;-61
2023/12/18 12:09:03;;;;;;;32.23;18.63;;;;;;;;;;5035949;28;20532;-62
2023/12/18 12:11:34;;;;;;;35.00;19.40;;;;;;;;;;5037363;28;20450;-60
2023/12/18 12:14:02;;;;;;;37.47;19.10;;;;;;;;;;5036641;28;20890;-62
2023/12/18 12:16:31;;;;;;;30.67;18.87;;;;;;;;;;5036933;28;20442;-59
2023/12/18 12:19:02;;;;;;;34.03;20.00;;;;;;;;;;5037245;28;20944;-60
2023/12/18 12:21:35;;;;;;;30.40;17.93;;;;;;;;;;5035659;28;20450;-63
2023/12/18 12:24:15;;;;;;;32.23;20.53;;;;;;;;;;5037059;28;21221;-62
2023/12/18 12:26:43;;;;;;;39.37;19.73;;;;;;;;;;5036411;28;20478;-61
2023/12/18 12:29:14;;;;;;;38.77;19.10;;;;;;;;;;5036655;28;20453;-61
2023/12/18 12:31:42;;;;;;;34.60;19.60;;;;;;;;;;5034325;28;20473;-63
2023/12/18 12:34:14;;;;;;;32.70;18.37;;;;;;;;;;5037184;28;20490;-62
2023/12/18 12:36:45;;;;;;;31.17;18.63;;;;;;;;;;5036141;28;20457;-62
2023/12/18 12:39:14;;;;;;;31.27;18.70;;;;;;;;;;5036728;28;20831;-62
2023/12/18 12:41:42;;;;;;;30.97;18.60;;;;;;;;;;5036811;28;20500;-62
2023/12/18 12:44:11;;;;;;;32.10;18.97;;;;;;;;;;5036109;28;20926;-60
2023/12/18 12:46:39;;;;;;;31.77;18.57;;;;;;;;;;5036395;28;20446;-60
2023/12/18 12:49:10;;;;;;;31.40;17.20;;;;;;;;;;5037251;28;20458;-61
2023/12/18 12:51:40;;;;;;;28.83;16.63;;;;;;;;;;5037066;28;20850;-61
2023/12/18 12:54:09;;;;;;;28.37;17.07;;;;;;;;;;5035655;28;20486;-60
2023/12/18 12:56:37;;;;;;;31.13;18.07;;;;;;;;;;5036937;28;20534;-60
2023/12/18 12:59:06;;;;;;;28.93;18.93;;;;;;;;;;5036446;28;20458;-61
2023/12/18 13:01:34;;;;;;;35.07;19.37;;;;;;;;;;5036987;28;20453;-60
2023/12/18 13:04:05;;;;;;;32.57;17.97;;;;;;;;;;5035096;28;21035;-62
2023/12/18 13:06:34;;;;;;;34.93;18.93;;;;;;;;;;5036437;28;20553;-62
2023/12/18 13:09:04;;;;;;;30.40;18.03;;;;;;;;;;5031380;28;20453;-60
2023/12/18 13:11:37;;;;;;;30.73;18.27;;;;;;;;;;5036770;28;20451;-61
2023/12/18 13:14:05;;;;;;;30.00;18.63;;;;;;;;;;5036787;28;20485;-61
2023/12/18 13:16:42;;;;;;;30.90;18.20;;;;;;;;;;5032313;28;20889;-61
2023/12/18 13:19:10;;;;;;;27.40;17.00;;;;;;;;;;5030912;28;20450;-61
2023/12/18 13:21:39;;;;;;;25.77;16.80;;;;;;;;;;5036150;28;20472;-62
2023/12/18 13:24:09;;;;;;;28.37;15.87;;;;;;;;;;5036964;28;20462;-61
2023/12/18 13:26:37;;;;;;;28.83;16.43;;;;;;;;;;5035246;28;20447;-62
2023/12/18 13:29:06;;;;;;;23.70;15.10;;;;;;;;;;5040149;28;20804;-61
2023/12/18 13:31:34;;;;;;;26.80;15.53;;;;;;;;;;5038376;28;20442;-60
2023/12/18 13:34:03;;;;;;;23.83;14.37;;;;;;;;;;5040203;28;20477;-61
2023/12/18 13:36:32;;;;;;;24.23;14.57;;;;;;;;;;5036313;28;20442;-61
2023/12/18 13:39:00;;;;;;;28.73;15.43;;;;;;;;;;5039137;28;20450;-62
2023/12/18 13:41:31;;;;;;;27.83;15.53;;;;;;;;;;5039830;28;20909;-60
2023/12/18 13:43:59;;;;;;;26.27;16.70;;;;;;;;;;5040186;28;20562;-60
2023/12/18 13:46:28;;;;;;;25.37;15.00;;;;;;;;;;5039822;28;20460;-60
2023/12/18 13:48:56;;;;;;;22.93;14.23;;;;;;;;;;5033460;28;20208;-62
2023/12/18 13:51:24;;;;;;;26.03;16.20;;;;;;;;;;5040090;28;20199;-60
2023/12/18 13:53:52;;;;;;;26.27;16.07;;;;;;;;;;5039556;28;20486;-60
2023/12/18 13:56:21;;;;;;;28.30;16.43;;;;;;;;;;5039730;28;20200;-59
2023/12/18 13:58:50;;;;;;;24.57;14.80;;;;;;;;;;5039210;28;20947;-59
2023/12/18 14:01:19;;;;;;;27.70;16.20;;;;;;;;;;5039230;28;20681;-59
2023/12/18 14:03:47;;;;;;;28.17;15.47;;;;;;;;;;5039725;28;20223;-59
2023/12/18 14:06:15;;;;;;;23.33;15.57;;;;;;;;;;5038777;28;20261;-59
2023/12/18 14:08:48;;;;;;;27.00;15.30;;;;;;;;;;5044088;28;20252;-59
2023/12/18 14:11:16;;;;;;;23.93;15.37;;;;;;;;;;5039142;28;20196;-59
2023/12/18 14:13:44;;;;;;;26.60;16.23;;;;;;;;;;5039329;28;20657;-59
2023/12/18 14:16:14;;;;;;;23.70;16.33;;;;;;;;;;5039071;28;20745;-59
2023/12/18 14:18:42;;;;;;;24.97;15.50;;;;;;;;;;5038905;28;20200;-60
2023/12/18 14:21:10;;;;;;;26.23;16.00;;;;;;;;;;5039321;28;20200;-59
2023/12/18 14:23:39;;;;;;;26.27;15.63;;;;;;;;;;5039220;28;20274;-59
2023/12/18 14:26:07;;;;;;;24.87;16.03;;;;;;;;;;5038914;28;20196;-60
2023/12/18 14:28:36;;;;;;;26.57;16.30;;;;;;;;;;5043030;28;20196;-59
2023/12/18 14:31:04;;;;;;;30.17;16.80;;;;;;;;;;5039222;28;20223;-59
2023/12/18 14:33:34;;;;;;;27.33;16.23;;;;;;;;;;5038939;28;20230;-59